sensor_id;sensor_type;location;lat;lon;timestamp;temperature;humidity
71039;SHT30;58692;43.212;27.908;2023-07-29T00:02:00;21.90;74.47
71039;SHT30;58692;43.212;27.908;2023-07-29T00:04:25;21.95;74.30
71039;SHT30;58692;43.212;27.908;2023-07-29T00:06:51;21.95;74.84
71039;SHT30;58692;43.212;27.908;2023-07-29T00:09:16;21.96;74.58
71039;SHT30;58692;43.212;27.908;2023-07-29T00:11:42;21.82;75.67
71039;SHT30;58692;43.212;27.908;2023-07-29T00:14:07;21.79;75.58
71039;SHT30;58692;43.212;27.908;2023-07-29T00:16:33;21.81;75.33
71039;SHT30;58692;43.212;27.908;2023-07-29T00:18:58;21.81;75.88
71039;SHT30;58692;43.212;27.908;2023-07-29T00:21:24;21.83;76.21
71039;SHT30;58692;43.212;27.908;2023-07-29T00:23:49;21.82;76.05
71039;SHT30;58692;43.212;27.908;2023-07-29T00:26:15;21.62;77.14
71039;SHT30;58692;43.212;27.908;2023-07-29T00:28:41;21.41;78.12
71039;SHT30;58692;43.212;27.908;2023-07-29T00:31:06;21.32;79.10
71039;SHT30;58692;43.212;27.908;2023-07-29T00:33:31;20.97;80.34
71039;SHT30;58692;43.212;27.908;2023-07-29T00:35:57;21.07;80.05
71039;SHT30;58692;43.212;27.908;2023-07-29T00:38:27;21.11;79.74
71039;SHT30;58692;43.212;27.908;2023-07-29T00:40:52;21.05;79.65
71039;SHT30;58692;43.212;27.908;2023-07-29T00:43:17;21.10;79.47
71039;SHT30;58692;43.212;27.908;2023-07-29T00:45:44;21.07;79.49
71039;SHT30;58692;43.212;27.908;2023-07-29T00:48:10;21.01;79.64
71039;SHT30;58692;43.212;27.908;2023-07-29T00:50:35;20.83;80.51
71039;SHT30;58692;43.212;27.908;2023-07-29T00:53:01;20.74;80.94
71039;SHT30;58692;43.212;27.908;2023-07-29T00:55:27;20.77;81.27
71039;SHT30;58692;43.212;27.908;2023-07-29T00:57:53;20.85;80.99
71039;SHT30;58692;43.212;27.908;2023-07-29T01:00:20;20.83;81.25
71039;SHT30;58692;43.212;27.908;2023-07-29T01:02:46;20.59;82.26
71039;SHT30;58692;43.212;27.908;2023-07-29T01:05:13;20.37;83.15
71039;SHT30;58692;43.212;27.908;2023-07-29T01:07:49;20.22;83.54
71039;SHT30;58692;43.212;27.908;2023-07-29T01:13:14;20.13;83.70
71039;SHT30;58692;43.212;27.908;2023-07-29T01:15:49;20.26;83.20
71039;SHT30;58692;43.212;27.908;2023-07-29T01:18:22;20.40;82.13
71039;SHT30;58692;43.212;27.908;2023-07-29T01:20:48;20.53;81.49
71039;SHT30;58692;43.212;27.908;2023-07-29T01:23:23;20.60;81.22
71039;SHT30;58692;43.212;27.908;2023-07-29T01:25:48;20.64;81.03
71039;SHT30;58692;43.212;27.908;2023-07-29T01:28:14;20.64;80.82
71039;SHT30;58692;43.212;27.908;2023-07-29T01:30:40;20.56;80.87
71039;SHT30;58692;43.212;27.908;2023-07-29T01:33:16;20.56;80.63
71039;SHT30;58692;43.212;27.908;2023-07-29T01:38:28;20.60;80.37
71039;SHT30;58692;43.212;27.908;2023-07-29T01:40:58;20.63;80.03
71039;SHT30;58692;43.212;27.908;2023-07-29T01:43:24;20.61;79.98
71039;SHT30;58692;43.212;27.908;2023-07-29T01:45:51;20.64;79.73
71039;SHT30;58692;43.212;27.908;2023-07-29T01:48:16;20.34;79.88
71039;SHT30;58692;43.212;27.908;2023-07-29T01:50:42;20.36;80.22
71039;SHT30;58692;43.212;27.908;2023-07-29T01:53:08;20.15;80.98
71039;SHT30;58692;43.212;27.908;2023-07-29T01:55:33;20.10;81.19
71039;SHT30;58692;43.212;27.908;2023-07-29T01:57:59;20.02;81.65
71039;SHT30;58692;43.212;27.908;2023-07-29T02:00:24;19.98;82.20
71039;SHT30;58692;43.212;27.908;2023-07-29T02:02:50;19.86;82.83
71039;SHT30;58692;43.212;27.908;2023-07-29T02:05:16;19.89;82.73
71039;SHT30;58692;43.212;27.908;2023-07-29T02:07:41;19.96;82.53
71039;SHT30;58692;43.212;27.908;2023-07-29T02:10:07;19.98;82.26
71039;SHT30;58692;43.212;27.908;2023-07-29T02:12:33;19.96;82.35
71039;SHT30;58692;43.212;27.908;2023-07-29T02:14:58;19.95;82.35
71039;SHT30;58692;43.212;27.908;2023-07-29T02:17:24;19.99;82.33
71039;SHT30;58692;43.212;27.908;2023-07-29T02:19:51;19.98;82.36
71039;SHT30;58692;43.212;27.908;2023-07-29T02:22:17;19.95;82.53
71039;SHT30;58692;43.212;27.908;2023-07-29T02:24:43;19.89;82.71
71039;SHT30;58692;43.212;27.908;2023-07-29T02:27:08;19.96;82.71
71039;SHT30;58692;43.212;27.908;2023-07-29T02:29:34;19.96;82.69
71039;SHT30;58692;43.212;27.908;2023-07-29T02:32:00;20.00;82.64
71039;SHT30;58692;43.212;27.908;2023-07-29T02:34:25;20.00;82.42
71039;SHT30;58692;43.212;27.908;2023-07-29T02:36:51;19.95;82.21
71039;SHT30;58692;43.212;27.908;2023-07-29T02:39:16;19.96;81.91
71039;SHT30;58692;43.212;27.908;2023-07-29T02:41:42;19.89;81.78
71039;SHT30;58692;43.212;27.908;2023-07-29T02:44:08;19.89;81.82
71039;SHT30;58692;43.212;27.908;2023-07-29T02:46:33;19.88;81.88
71039;SHT30;58692;43.212;27.908;2023-07-29T02:48:59;19.86;81.99
71039;SHT30;58692;43.212;27.908;2023-07-29T02:51:24;19.88;82.26
71039;SHT30;58692;43.212;27.908;2023-07-29T02:53:50;19.83;82.43
71039;SHT30;58692;43.212;27.908;2023-07-29T02:56:16;19.81;82.75
71039;SHT30;58692;43.212;27.908;2023-07-29T02:58:41;19.82;82.69
71039;SHT30;58692;43.212;27.908;2023-07-29T03:01:07;19.68;83.10
71039;SHT30;58692;43.212;27.908;2023-07-29T03:03:33;19.74;83.05
71039;SHT30;58692;43.212;27.908;2023-07-29T03:06:01;19.72;82.79
71039;SHT30;58692;43.212;27.908;2023-07-29T03:08:27;19.71;82.64
71039;SHT30;58692;43.212;27.908;2023-07-29T03:10:52;19.69;82.52
71039;SHT30;58692;43.212;27.908;2023-07-29T03:13:18;19.69;82.31
71039;SHT30;58692;43.212;27.908;2023-07-29T03:15:43;19.75;82.20
71039;SHT30;58692;43.212;27.908;2023-07-29T03:18:08;19.58;82.46
71039;SHT30;58692;43.212;27.908;2023-07-29T03:20:34;19.59;82.31
71039;SHT30;58692;43.212;27.908;2023-07-29T03:22:59;19.61;82.37
71039;SHT30;58692;43.212;27.908;2023-07-29T03:25:25;19.65;82.13
71039;SHT30;58692;43.212;27.908;2023-07-29T03:27:50;19.64;81.67
71039;SHT30;58692;43.212;27.908;2023-07-29T03:30:19;19.57;81.69
71039;SHT30;58692;43.212;27.908;2023-07-29T03:32:46;19.68;81.44
71039;SHT30;58692;43.212;27.908;2023-07-29T03:35:11;19.59;81.44
71039;SHT30;58692;43.212;27.908;2023-07-29T03:37:37;19.59;81.54
71039;SHT30;58692;43.212;27.908;2023-07-29T03:40:03;19.32;82.38
71039;SHT30;58692;43.212;27.908;2023-07-29T03:42:29;19.45;82.06
71039;SHT30;58692;43.212;27.908;2023-07-29T03:44:56;19.51;81.78
71039;SHT30;58692;43.212;27.908;2023-07-29T03:47:22;19.65;81.30
71039;SHT30;58692;43.212;27.908;2023-07-29T03:49:47;19.68;80.72
71039;SHT30;58692;43.212;27.908;2023-07-29T03:52:13;19.83;80.38
71039;SHT30;58692;43.212;27.908;2023-07-29T03:54:39;20.02;79.84
71039;SHT30;58692;43.212;27.908;2023-07-29T03:57:04;20.26;79.19
71039;SHT30;58692;43.212;27.908;2023-07-29T03:59:30;20.59;78.05
71039;SHT30;58692;43.212;27.908;2023-07-29T04:01:56;20.95;76.93
71039;SHT30;58692;43.212;27.908;2023-07-29T04:04:21;21.21;76.22
71039;SHT30;58692;43.212;27.908;2023-07-29T04:06:47;21.35;75.50
71039;SHT30;58692;43.212;27.908;2023-07-29T04:09:12;21.48;75.09
71039;SHT30;58692;43.212;27.908;2023-07-29T04:11:38;21.75;74.56
71039;SHT30;58692;43.212;27.908;2023-07-29T04:14:04;21.67;74.50
71039;SHT30;58692;43.212;27.908;2023-07-29T04:16:29;21.86;73.88
71039;SHT30;58692;43.212;27.908;2023-07-29T04:18:55;21.95;73.55
71039;SHT30;58692;43.212;27.908;2023-07-29T04:21:20;22.23;72.54
71039;SHT30;58692;43.212;27.908;2023-07-29T04:23:46;22.37;72.29
71039;SHT30;58692;43.212;27.908;2023-07-29T04:26:11;22.50;72.14
71039;SHT30;58692;43.212;27.908;2023-07-29T04:28:37;22.74;71.29
71039;SHT30;58692;43.212;27.908;2023-07-29T04:31:02;22.65;71.43
71039;SHT30;58692;43.212;27.908;2023-07-29T04:33:29;22.83;71.15
71039;SHT30;58692;43.212;27.908;2023-07-29T04:35:56;22.90;70.86
71039;SHT30;58692;43.212;27.908;2023-07-29T04:38:22;22.97;70.68
71039;SHT30;58692;43.212;27.908;2023-07-29T04:40:49;23.26;70.01
71039;SHT30;58692;43.212;27.908;2023-07-29T04:43:14;23.33;69.99
71039;SHT30;58692;43.212;27.908;2023-07-29T04:45:43;23.52;69.54
71039;SHT30;58692;43.212;27.908;2023-07-29T04:48:09;23.90;68.74
71039;SHT30;58692;43.212;27.908;2023-07-29T04:50:35;23.92;68.29
71039;SHT30;58692;43.212;27.908;2023-07-29T04:53:00;24.02;68.42
71039;SHT30;58692;43.212;27.908;2023-07-29T04:55:26;24.34;67.95
71039;SHT30;58692;43.212;27.908;2023-07-29T04:57:52;24.38;67.62
71039;SHT30;58692;43.212;27.908;2023-07-29T05:00:17;25.29;65.81
71039;SHT30;58692;43.212;27.908;2023-07-29T05:02:43;25.45;65.13
71039;SHT30;58692;43.212;27.908;2023-07-29T05:05:08;25.60;64.33
71039;SHT30;58692;43.212;27.908;2023-07-29T05:07:34;26.41;62.98
71039;SHT30;58692;43.212;27.908;2023-07-29T05:09:59;26.18;63.03
71039;SHT30;58692;43.212;27.908;2023-07-29T05:12:25;26.11;63.07
71039;SHT30;58692;43.212;27.908;2023-07-29T05:14:50;25.65;64.19
71039;SHT30;58692;43.212;27.908;2023-07-29T05:17:16;25.96;64.01
71039;SHT30;58692;43.212;27.908;2023-07-29T05:19:42;25.86;64.48
71039;SHT30;58692;43.212;27.908;2023-07-29T05:22:07;25.91;64.33
71039;SHT30;58692;43.212;27.908;2023-07-29T05:24:33;25.94;64.79
71039;SHT30;58692;43.212;27.908;2023-07-29T05:26:58;26.07;64.71
71039;SHT30;58692;43.212;27.908;2023-07-29T05:29:24;25.29;66.08
71039;SHT30;58692;43.212;27.908;2023-07-29T05:31:49;26.32;64.13
71039;SHT30;58692;43.212;27.908;2023-07-29T05:34:15;26.32;64.36
71039;SHT30;58692;43.212;27.908;2023-07-29T05:36:40;26.45;63.79
71039;SHT30;58692;43.212;27.908;2023-07-29T05:39:06;26.47;63.89
71039;SHT30;58692;43.212;27.908;2023-07-29T05:41:32;26.73;63.45
71039;SHT30;58692;43.212;27.908;2023-07-29T05:43:58;26.95;63.08
71039;SHT30;58692;43.212;27.908;2023-07-29T05:46:23;27.58;61.77
71039;SHT30;58692;43.212;27.908;2023-07-29T05:48:49;27.27;62.74
71039;SHT30;58692;43.212;27.908;2023-07-29T05:51:14;27.12;62.52
71039;SHT30;58692;43.212;27.908;2023-07-29T05:53:40;27.98;60.79
71039;SHT30;58692;43.212;27.908;2023-07-29T05:56:05;28.05;59.44
71039;SHT30;58692;43.212;27.908;2023-07-29T05:58:31;28.17;59.53
71039;SHT30;58692;43.212;27.908;2023-07-29T06:00:57;27.37;61.15
71039;SHT30;58692;43.212;27.908;2023-07-29T06:03:23;27.77;59.34
71039;SHT30;58692;43.212;27.908;2023-07-29T06:05:49;28.01;59.84
71039;SHT30;58692;43.212;27.908;2023-07-29T06:08:14;28.22;58.78
71039;SHT30;58692;43.212;27.908;2023-07-29T06:10:40;28.31;57.06
71039;SHT30;58692;43.212;27.908;2023-07-29T06:13:05;28.38;57.31
71039;SHT30;58692;43.212;27.908;2023-07-29T06:15:31;28.63;57.95
71039;SHT30;58692;43.212;27.908;2023-07-29T06:17:57;28.58;57.47
71039;SHT30;58692;43.212;27.908;2023-07-29T06:20:22;29.06;56.40
71039;SHT30;58692;43.212;27.908;2023-07-29T06:22:48;28.79;56.76
71039;SHT30;58692;43.212;27.908;2023-07-29T06:25:13;29.09;56.53
71039;SHT30;58692;43.212;27.908;2023-07-29T06:27:39;29.31;55.64
71039;SHT30;58692;43.212;27.908;2023-07-29T06:30:05;29.65;54.89
71039;SHT30;58692;43.212;27.908;2023-07-29T06:32:31;29.75;54.67
71039;SHT30;58692;43.212;27.908;2023-07-29T06:34:57;29.89;54.06
71039;SHT30;58692;43.212;27.908;2023-07-29T06:37:23;29.77;53.35
71039;SHT30;58692;43.212;27.908;2023-07-29T06:39:48;29.95;53.45
71039;SHT30;58692;43.212;27.908;2023-07-29T06:42:17;30.13;52.44
71039;SHT30;58692;43.212;27.908;2023-07-29T06:44:42;30.52;51.75
71039;SHT30;58692;43.212;27.908;2023-07-29T06:47:08;30.52;51.58
71039;SHT30;58692;43.212;27.908;2023-07-29T06:49:34;30.16;52.39
71039;SHT30;58692;43.212;27.908;2023-07-29T06:51:59;30.11;52.23
71039;SHT30;58692;43.212;27.908;2023-07-29T06:54:25;30.83;50.46
71039;SHT30;58692;43.212;27.908;2023-07-29T06:56:51;30.72;50.16
71039;SHT30;58692;43.212;27.908;2023-07-29T06:59:17;31.23;49.79
71039;SHT30;58692;43.212;27.908;2023-07-29T07:01:43;30.66;50.66
71039;SHT30;58692;43.212;27.908;2023-07-29T07:04:08;30.51;51.57
71039;SHT30;58692;43.212;27.908;2023-07-29T07:06:34;30.70;50.69
71039;SHT30;58692;43.212;27.908;2023-07-29T07:08:59;31.13;50.14
71039;SHT30;58692;43.212;27.908;2023-07-29T07:11:25;31.49;49.16
71039;SHT30;58692;43.212;27.908;2023-07-29T07:13:50;31.38;49.54
71039;SHT30;58692;43.212;27.908;2023-07-29T07:16:16;30.98;49.85
71039;SHT30;58692;43.212;27.908;2023-07-29T07:18:41;31.44;48.97
71039;SHT30;58692;43.212;27.908;2023-07-29T07:21:07;31.69;48.61
71039;SHT30;58692;43.212;27.908;2023-07-29T07:23:32;32.19;47.96
71039;SHT30;58692;43.212;27.908;2023-07-29T07:25:58;31.71;48.39
71039;SHT30;58692;43.212;27.908;2023-07-29T07:28:23;31.54;47.79
71039;SHT30;58692;43.212;27.908;2023-07-29T07:30:49;31.52;47.88
71039;SHT30;58692;43.212;27.908;2023-07-29T07:33:15;31.54;47.63
71039;SHT30;58692;43.212;27.908;2023-07-29T07:35:40;32.05;46.75
71039;SHT30;58692;43.212;27.908;2023-07-29T07:38:07;32.06;46.62
71039;SHT30;58692;43.212;27.908;2023-07-29T07:40:35;32.01;46.10
71039;SHT30;58692;43.212;27.908;2023-07-29T07:43:01;32.48;45.42
71039;SHT30;58692;43.212;27.908;2023-07-29T07:45:27;32.28;44.75
71039;SHT30;58692;43.212;27.908;2023-07-29T07:47:53;32.18;45.33
71039;SHT30;58692;43.212;27.908;2023-07-29T07:50:20;33.03;43.84
71039;SHT30;58692;43.212;27.908;2023-07-29T07:52:45;32.77;43.79
71039;SHT30;58692;43.212;27.908;2023-07-29T07:55:11;32.88;40.84
71039;SHT30;58692;43.212;27.908;2023-07-29T07:57:36;32.64;41.73
71039;SHT30;58692;43.212;27.908;2023-07-29T08:00:03;32.28;41.96
71039;SHT30;58692;43.212;27.908;2023-07-29T08:02:29;32.29;41.43
71039;SHT30;58692;43.212;27.908;2023-07-29T08:04:55;33.22;39.39
71039;SHT30;58692;43.212;27.908;2023-07-29T08:07:21;33.08;38.87
71039;SHT30;58692;43.212;27.908;2023-07-29T08:09:46;33.35;37.07
71039;SHT30;58692;43.212;27.908;2023-07-29T08:12:12;33.98;36.69
71039;SHT30;58692;43.212;27.908;2023-07-29T08:14:37;34.10;35.48
71039;SHT30;58692;43.212;27.908;2023-07-29T08:17:03;34.35;35.85
71039;SHT30;58692;43.212;27.908;2023-07-29T08:19:29;34.20;34.86
71039;SHT30;58692;43.212;27.908;2023-07-29T08:21:54;33.69;35.04
71039;SHT30;58692;43.212;27.908;2023-07-29T08:24:20;34.06;34.80
71039;SHT30;58692;43.212;27.908;2023-07-29T08:26:45;34.74;33.34
71039;SHT30;58692;43.212;27.908;2023-07-29T08:29:11;34.57;32.09
71039;SHT30;58692;43.212;27.908;2023-07-29T08:31:37;33.61;32.33
71039;SHT30;58692;43.212;27.908;2023-07-29T08:34:03;33.41;34.37
71039;SHT30;58692;43.212;27.908;2023-07-29T08:36:29;33.66;33.11
71039;SHT30;58692;43.212;27.908;2023-07-29T08:38:54;34.37;31.48
71039;SHT30;58692;43.212;27.908;2023-07-29T08:41:25;35.52;31.53
71039;SHT30;58692;43.212;27.908;2023-07-29T08:43:59;35.30;31.75
71039;SHT30;58692;43.212;27.908;2023-07-29T08:46:28;35.86;31.52
71039;SHT30;58692;43.212;27.908;2023-07-29T08:48:54;35.81;35.98
71039;SHT30;58692;43.212;27.908;2023-07-29T08:51:21;35.45;37.32
71039;SHT30;58692;43.212;27.908;2023-07-29T08:53:49;34.53;40.11
71039;SHT30;58692;43.212;27.908;2023-07-29T08:56:14;33.98;38.84
71039;SHT30;58692;43.212;27.908;2023-07-29T08:58:41;34.49;39.36
71039;SHT30;58692;43.212;27.908;2023-07-29T09:01:07;33.82;40.95
71039;SHT30;58692;43.212;27.908;2023-07-29T09:03:33;33.14;42.38
71039;SHT30;58692;43.212;27.908;2023-07-29T09:05:58;33.15;41.43
71039;SHT30;58692;43.212;27.908;2023-07-29T09:08:26;33.75;41.52
71039;SHT30;58692;43.212;27.908;2023-07-29T09:10:53;33.03;41.36
71039;SHT30;58692;43.212;27.908;2023-07-29T09:13:19;32.32;42.40
71039;SHT30;58692;43.212;27.908;2023-07-29T09:15:45;33.03;42.34
71039;SHT30;58692;43.212;27.908;2023-07-29T09:18:16;33.17;41.85
71039;SHT30;58692;43.212;27.908;2023-07-29T09:20:42;32.74;41.71
71039;SHT30;58692;43.212;27.908;2023-07-29T09:23:09;32.46;42.73
71039;SHT30;58692;43.212;27.908;2023-07-29T09:25:37;32.41;43.58
71039;SHT30;58692;43.212;27.908;2023-07-29T09:28:10;33.07;42.84
71039;SHT30;58692;43.212;27.908;2023-07-29T09:30:38;33.10;42.86
71039;SHT30;58692;43.212;27.908;2023-07-29T09:33:03;33.30;42.78
71039;SHT30;58692;43.212;27.908;2023-07-29T09:35:30;33.81;42.75
71039;SHT30;58692;43.212;27.908;2023-07-29T09:37:59;34.61;41.81
71039;SHT30;58692;43.212;27.908;2023-07-29T09:40:24;34.66;41.59
71039;SHT30;58692;43.212;27.908;2023-07-29T09:42:51;34.01;41.49
71039;SHT30;58692;43.212;27.908;2023-07-29T09:45:22;33.69;41.34
71039;SHT30;58692;43.212;27.908;2023-07-29T09:47:49;33.76;42.92
71039;SHT30;58692;43.212;27.908;2023-07-29T09:50:15;33.98;42.29
71039;SHT30;58692;43.212;27.908;2023-07-29T09:52:41;33.66;44.24
71039;SHT30;58692;43.212;27.908;2023-07-29T09:55:10;33.50;43.48
71039;SHT30;58692;43.212;27.908;2023-07-29T09:57:36;33.73;43.52
71039;SHT30;58692;43.212;27.908;2023-07-29T10:00:04;33.28;45.78
71039;SHT30;58692;43.212;27.908;2023-07-29T10:02:40;33.57;44.90
71039;SHT30;58692;43.212;27.908;2023-07-29T10:05:07;33.42;45.36
71039;SHT30;58692;43.212;27.908;2023-07-29T10:07:36;32.81;45.90
71039;SHT30;58692;43.212;27.908;2023-07-29T10:10:03;32.53;46.39
71039;SHT30;58692;43.212;27.908;2023-07-29T10:12:31;32.81;47.67
71039;SHT30;58692;43.212;27.908;2023-07-29T10:15:00;33.66;46.00
71039;SHT30;58692;43.212;27.908;2023-07-29T10:17:26;33.18;48.08
71039;SHT30;58692;43.212;27.908;2023-07-29T10:19:53;33.28;49.11
71039;SHT30;58692;43.212;27.908;2023-07-29T10:22:21;32.33;50.09
71039;SHT30;58692;43.212;27.908;2023-07-29T10:24:50;32.19;51.47
71039;SHT30;58692;43.212;27.908;2023-07-29T10:27:19;32.33;50.10
71039;SHT30;58692;43.212;27.908;2023-07-29T10:29:45;31.95;50.01
71039;SHT30;58692;43.212;27.908;2023-07-29T10:32:11;31.79;51.63
71039;SHT30;58692;43.212;27.908;2023-07-29T10:34:37;32.13;52.65
71039;SHT30;58692;43.212;27.908;2023-07-29T10:37:04;31.92;52.28
71039;SHT30;58692;43.212;27.908;2023-07-29T10:39:38;30.88;53.72
71039;SHT30;58692;43.212;27.908;2023-07-29T10:42:06;30.06;55.84
71039;SHT30;58692;43.212;27.908;2023-07-29T10:44:49;30.12;56.55
71039;SHT30;58692;43.212;27.908;2023-07-29T10:47:17;29.84;56.95
71039;SHT30;58692;43.212;27.908;2023-07-29T10:49:44;29.46;56.54
71039;SHT30;58692;43.212;27.908;2023-07-29T10:52:29;29.41;58.56
71039;SHT30;58692;43.212;27.908;2023-07-29T10:54:56;29.16;60.02
71039;SHT30;58692;43.212;27.908;2023-07-29T10:57:35;29.30;59.87
71039;SHT30;58692;43.212;27.908;2023-07-29T11:00:01;30.26;58.21
71039;SHT30;58692;43.212;27.908;2023-07-29T11:04:55;30.40;58.02
71039;SHT30;58692;43.212;27.908;2023-07-29T11:07:22;30.25;58.73
71039;SHT30;58692;43.212;27.908;2023-07-29T11:10:00;30.25;58.90
71039;SHT30;58692;43.212;27.908;2023-07-29T11:17:34;30.06;59.96
71039;SHT30;58692;43.212;27.908;2023-07-29T11:20:01;30.35;59.24
71039;SHT30;58692;43.212;27.908;2023-07-29T11:22:28;30.56;58.49
71039;SHT30;58692;43.212;27.908;2023-07-29T11:24:54;30.21;59.57
71039;SHT30;58692;43.212;27.908;2023-07-29T11:27:20;30.59;58.74
71039;SHT30;58692;43.212;27.908;2023-07-29T11:29:46;29.77;60.20
71039;SHT30;58692;43.212;27.908;2023-07-29T11:32:12;30.28;59.42
71039;SHT30;58692;43.212;27.908;2023-07-29T11:34:38;29.70;61.14
71039;SHT30;58692;43.212;27.908;2023-07-29T11:37:05;30.05;60.07
71039;SHT30;58692;43.212;27.908;2023-07-29T11:39:32;30.06;60.23
71039;SHT30;58692;43.212;27.908;2023-07-29T11:41:58;29.93;61.14
71039;SHT30;58692;43.212;27.908;2023-07-29T11:44:25;29.41;61.97
71039;SHT30;58692;43.212;27.908;2023-07-29T11:46:50;29.81;61.69
71039;SHT30;58692;43.212;27.908;2023-07-29T11:49:16;29.89;61.25
71039;SHT30;58692;43.212;27.908;2023-07-29T11:51:41;30.35;60.13
71039;SHT30;58692;43.212;27.908;2023-07-29T11:54:08;30.83;58.53
71039;SHT30;58692;43.212;27.908;2023-07-29T11:56:34;30.51;57.46
71039;SHT30;58692;43.212;27.908;2023-07-29T11:59:01;30.19;58.16
71039;SHT30;58692;43.212;27.908;2023-07-29T12:01:28;30.02;57.78
71039;SHT30;58692;43.212;27.908;2023-07-29T12:03:55;29.97;57.20
71039;SHT30;58692;43.212;27.908;2023-07-29T12:06:21;30.37;54.87
71039;SHT30;58692;43.212;27.908;2023-07-29T12:08:47;30.31;54.15
71039;SHT30;58692;43.212;27.908;2023-07-29T12:11:13;29.82;55.73
71039;SHT30;58692;43.212;27.908;2023-07-29T12:13:41;29.80;56.47
71039;SHT30;58692;43.212;27.908;2023-07-29T12:16:07;29.53;57.54
71039;SHT30;58692;43.212;27.908;2023-07-29T12:18:33;29.19;57.70
71039;SHT30;58692;43.212;27.908;2023-07-29T12:20:59;28.76;57.72
71039;SHT30;58692;43.212;27.908;2023-07-29T12:23:25;28.75;55.97
71039;SHT30;58692;43.212;27.908;2023-07-29T12:25:57;28.22;56.88
71039;SHT30;58692;43.212;27.908;2023-07-29T12:28:23;28.14;57.83
71039;SHT30;58692;43.212;27.908;2023-07-29T12:30:53;28.38;56.72
71039;SHT30;58692;43.212;27.908;2023-07-29T12:33:36;28.51;57.49
71039;SHT30;58692;43.212;27.908;2023-07-29T12:36:04;28.51;57.01
71039;SHT30;58692;43.212;27.908;2023-07-29T12:38:30;28.60;57.67
71039;SHT30;58692;43.212;27.908;2023-07-29T12:40:56;28.31;55.44
71039;SHT30;58692;43.212;27.908;2023-07-29T12:43:22;28.36;56.39
71039;SHT30;58692;43.212;27.908;2023-07-29T12:45:50;28.51;55.80
71039;SHT30;58692;43.212;27.908;2023-07-29T12:48:16;28.21;55.61
71039;SHT30;58692;43.212;27.908;2023-07-29T12:50:42;28.00;55.81
71039;SHT30;58692;43.212;27.908;2023-07-29T12:53:08;27.91;54.41
71039;SHT30;58692;43.212;27.908;2023-07-29T12:55:36;28.07;56.07
71039;SHT30;58692;43.212;27.908;2023-07-29T12:58:02;28.19;55.63
71039;SHT30;58692;43.212;27.908;2023-07-29T13:00:27;28.08;56.12
71039;SHT30;58692;43.212;27.908;2023-07-29T13:02:53;28.19;54.61
71039;SHT30;58692;43.212;27.908;2023-07-29T13:05:19;28.18;54.73
71039;SHT30;58692;43.212;27.908;2023-07-29T13:07:45;28.34;54.14
71039;SHT30;58692;43.212;27.908;2023-07-29T13:10:11;27.85;55.57
71039;SHT30;58692;43.212;27.908;2023-07-29T13:12:37;27.81;55.72
71039;SHT30;58692;43.212;27.908;2023-07-29T13:15:03;27.57;56.02
71039;SHT30;58692;43.212;27.908;2023-07-29T13:17:28;27.78;56.47
71039;SHT30;58692;43.212;27.908;2023-07-29T13:19:54;28.14;57.46
71039;SHT30;58692;43.212;27.908;2023-07-29T13:22:20;27.98;57.91
71039;SHT30;58692;43.212;27.908;2023-07-29T13:24:45;27.65;57.94
71039;SHT30;58692;43.212;27.908;2023-07-29T13:27:11;27.57;59.15
71039;SHT30;58692;43.212;27.908;2023-07-29T13:29:36;27.60;59.30
71039;SHT30;58692;43.212;27.908;2023-07-29T13:32:02;27.63;59.07
71039;SHT30;58692;43.212;27.908;2023-07-29T13:34:28;27.55;59.49
71039;SHT30;58692;43.212;27.908;2023-07-29T13:36:54;27.42;60.33
71039;SHT30;58692;43.212;27.908;2023-07-29T13:39:19;27.51;60.72
71039;SHT30;58692;43.212;27.908;2023-07-29T13:41:44;27.54;61.50
71039;SHT30;58692;43.212;27.908;2023-07-29T13:44:10;27.43;60.94
71039;SHT30;58692;43.212;27.908;2023-07-29T13:46:35;27.61;63.51
71039;SHT30;58692;43.212;27.908;2023-07-29T13:49:01;27.55;60.14
71039;SHT30;58692;43.212;27.908;2023-07-29T13:51:27;27.44;61.15
71039;SHT30;58692;43.212;27.908;2023-07-29T13:53:52;27.61;64.96
71039;SHT30;58692;43.212;27.908;2023-07-29T13:56:18;27.76;64.85
71039;SHT30;58692;43.212;27.908;2023-07-29T13:58:43;27.68;64.32
71039;SHT30;58692;43.212;27.908;2023-07-29T14:01:09;27.78;62.73
71039;SHT30;58692;43.212;27.908;2023-07-29T14:03:35;27.88;61.19
71039;SHT30;58692;43.212;27.908;2023-07-29T14:06:00;27.90;60.72
71039;SHT30;58692;43.212;27.908;2023-07-29T14:08:26;27.63;59.13
71039;SHT30;58692;43.212;27.908;2023-07-29T14:10:51;27.57;64.32
71039;SHT30;58692;43.212;27.908;2023-07-29T14:13:17;27.64;64.45
71039;SHT30;58692;43.212;27.908;2023-07-29T14:15:42;27.61;63.64
71039;SHT30;58692;43.212;27.908;2023-07-29T14:18:08;27.37;63.00
71039;SHT30;58692;43.212;27.908;2023-07-29T14:20:34;27.22;63.81
71039;SHT30;58692;43.212;27.908;2023-07-29T14:22:59;27.23;64.99
71039;SHT30;58692;43.212;27.908;2023-07-29T14:25:25;27.16;64.74
71039;SHT30;58692;43.212;27.908;2023-07-29T14:27:50;27.12;66.03
71039;SHT30;58692;43.212;27.908;2023-07-29T14:30:16;27.14;65.84
71039;SHT30;58692;43.212;27.908;2023-07-29T14:32:42;27.06;66.51
71039;SHT30;58692;43.212;27.908;2023-07-29T14:35:07;26.98;67.42
71039;SHT30;58692;43.212;27.908;2023-07-29T14:37:34;26.91;68.00
71039;SHT30;58692;43.212;27.908;2023-07-29T14:40:00;26.62;69.15
71039;SHT30;58692;43.212;27.908;2023-07-29T14:42:26;26.78;68.33
71039;SHT30;58692;43.212;27.908;2023-07-29T14:44:52;26.78;67.87
71039;SHT30;58692;43.212;27.908;2023-07-29T14:47:18;26.72;67.20
71039;SHT30;58692;43.212;27.908;2023-07-29T14:49:44;26.71;67.00
71039;SHT30;58692;43.212;27.908;2023-07-29T14:52:10;26.55;67.99
71039;SHT30;58692;43.212;27.908;2023-07-29T14:54:36;26.53;68.30
71039;SHT30;58692;43.212;27.908;2023-07-29T14:57:02;26.45;67.21
71039;SHT30;58692;43.212;27.908;2023-07-29T14:59:27;26.37;67.48
71039;SHT30;58692;43.212;27.908;2023-07-29T15:01:53;26.25;68.34
71039;SHT30;58692;43.212;27.908;2023-07-29T15:04:20;26.30;68.80
71039;SHT30;58692;43.212;27.908;2023-07-29T15:06:45;26.31;69.16
71039;SHT30;58692;43.212;27.908;2023-07-29T15:09:11;26.07;70.16
71039;SHT30;58692;43.212;27.908;2023-07-29T15:11:36;26.22;70.24
71039;SHT30;58692;43.212;27.908;2023-07-29T15:14:03;26.31;69.59
71039;SHT30;58692;43.212;27.908;2023-07-29T15:16:29;26.21;70.25
71039;SHT30;58692;43.212;27.908;2023-07-29T15:18:55;26.20;69.99
71039;SHT30;58692;43.212;27.908;2023-07-29T15:21:20;25.96;71.02
71039;SHT30;58692;43.212;27.908;2023-07-29T15:23:46;25.96;71.47